createdAt,value
2018-03-25T00:01:34.907Z,32.83
2018-03-25T00:04:03.311Z,35.08
2018-03-25T00:06:31.488Z,36.63
2018-03-25T00:08:59.758Z,33.35
2018-03-25T00:11:27.221Z,34.95
2018-03-25T00:13:56.159Z,36.65
2018-03-25T00:16:24.280Z,32.88
2018-03-25T00:18:52.170Z,40.50
2018-03-25T00:21:20.735Z,34.95
2018-03-25T00:23:48.199Z,34.78
2018-03-25T00:26:16.429Z,29.92
2018-03-25T00:28:43.898Z,34.05
2018-03-25T00:31:11.358Z,32.83
2018-03-25T00:33:38.826Z,32.78
2018-03-25T00:36:06.298Z,34.63
2018-03-25T00:38:34.919Z,32.60
2018-03-25T00:41:03.151Z,31.85
2018-03-25T00:43:31.943Z,33.65
2018-03-25T00:45:59.512Z,34.95
2018-03-25T00:48:27.130Z,28.73
2018-03-25T00:50:54.579Z,29.70
2018-03-25T00:53:23.142Z,28.52
2018-03-25T00:55:51.378Z,30.25
2018-03-25T00:58:18.957Z,32.88
2018-03-25T01:00:46.415Z,31.60
2018-03-25T01:03:13.921Z,32.22
2018-03-25T01:05:41.682Z,33.58
2018-03-25T01:08:09.198Z,34.85
2018-03-25T01:10:36.665Z,33.92
2018-03-25T01:13:04.894Z,30.23
2018-03-25T01:15:44.326Z,33.30
2018-03-25T01:18:11.790Z,30.95
2018-03-25T01:20:39.250Z,32.17
2018-03-25T01:23:06.710Z,34.88
2018-03-25T01:25:34.603Z,34.40
2018-03-25T01:28:02.169Z,31.05
2018-03-25T01:30:30.339Z,33.88
2018-03-25T01:32:57.814Z,30.58
2018-03-25T01:35:26.136Z,28.77
2018-03-25T01:37:53.598Z,31.67
2018-03-25T01:40:21.701Z,28.80
2018-03-25T01:42:49.170Z,32.03
2018-03-25T01:45:16.637Z,31.77
2018-03-25T01:47:44.094Z,29.80
2018-03-25T01:50:12.323Z,26.40
2018-03-25T01:52:39.838Z,28.55
2018-03-25T01:55:08.055Z,30.20
2018-03-25T01:57:36.341Z,29.45
2018-03-25T02:00:03.906Z,29.73
2018-03-25T02:02:31.395Z,28.42
2018-03-25T02:04:59.458Z,26.70
2018-03-25T02:07:27.534Z,25.75
2018-03-25T02:09:55.197Z,28.77
2018-03-25T02:12:23.171Z,26.95
2018-03-25T02:14:51.363Z,26.30
2018-03-25T02:17:19.590Z,30.08
2018-03-25T02:19:47.054Z,30.98
2018-03-25T02:22:14.530Z,26.90
2018-03-25T02:24:41.990Z,31.65
2018-03-25T02:27:09.549Z,26.25
2018-03-25T02:29:37.723Z,26.58
2018-03-25T02:32:05.622Z,27.67
2018-03-25T02:34:34.183Z,23.90
2018-03-25T02:37:01.643Z,23.55
2018-03-25T02:39:30.055Z,30.98
2018-03-25T02:41:57.484Z,27.62
2018-03-25T02:44:25.036Z,24.75
2018-03-25T02:46:52.498Z,27.15
2018-03-25T02:49:19.957Z,30.33
2018-03-25T02:51:48.027Z,28.75
2018-03-25T02:54:15.586Z,27.62
2018-03-25T02:56:43.699Z,27.45
2018-03-25T02:59:11.626Z,27.33
2018-03-25T03:01:39.147Z,24.15
2018-03-25T03:04:06.651Z,26.30
2018-03-25T03:06:34.111Z,25.05
2018-03-25T03:09:03.146Z,25.35
2018-03-25T03:11:31.195Z,25.20
2018-03-25T03:13:59.429Z,25.40
2018-03-25T03:16:27.989Z,26.55
2018-03-25T03:18:55.494Z,20.33
2018-03-25T03:21:24.283Z,26.55
2018-03-25T03:23:51.841Z,21.27
2018-03-25T03:26:20.061Z,21.55
2018-03-25T03:28:47.986Z,24.45
2018-03-25T03:31:15.852Z,25.23
2018-03-25T03:33:43.934Z,25.83
2018-03-25T03:36:11.389Z,24.25
2018-03-25T03:38:38.850Z,24.80
2018-03-25T03:41:06.307Z,22.25
2018-03-25T03:43:33.859Z,24.77
2018-03-25T03:46:01.319Z,23.00
2018-03-25T03:48:29.694Z,21.37
2018-03-25T03:50:57.782Z,23.17
2018-03-25T03:53:26.051Z,24.48
2018-03-25T03:55:54.010Z,25.15
2018-03-25T03:58:21.578Z,22.15
2018-03-25T04:00:49.271Z,23.23
2018-03-25T04:03:17.554Z,24.23
2018-03-25T04:05:46.364Z,21.65
2018-03-25T04:08:14.563Z,25.62
2018-03-25T04:10:42.034Z,20.98
2018-03-25T04:13:09.514Z,20.48
2018-03-25T04:15:37.733Z,22.33
2018-03-25T04:18:05.235Z,21.83
2018-03-25T04:20:32.794Z,20.08
2018-03-25T04:23:00.250Z,20.25
2018-03-25T04:25:27.714Z,21.12
2018-03-25T04:27:55.782Z,23.70
2018-03-25T04:30:23.933Z,19.85
2018-03-25T04:32:52.130Z,19.10
2018-03-25T04:35:20.406Z,22.08
2018-03-25T04:37:49.438Z,21.92
2018-03-25T04:40:18.288Z,22.73
2018-03-25T04:42:45.815Z,20.60
2018-03-25T04:45:13.446Z,21.02
2018-03-25T04:47:42.193Z,21.77
2018-03-25T04:50:09.663Z,22.15
2018-03-25T04:52:37.942Z,22.98
2018-03-25T04:55:06.174Z,21.87
2018-03-25T04:57:34.348Z,20.62
2018-03-25T05:00:02.506Z,23.38
2018-03-25T05:02:31.107Z,20.55
2018-03-25T05:04:58.572Z,20.80
2018-03-25T05:07:26.741Z,21.73
2018-03-25T05:09:54.998Z,21.55
2018-03-25T05:12:22.457Z,19.23
2018-03-25T05:14:50.359Z,21.15
2018-03-25T05:17:17.849Z,22.33
2018-03-25T05:19:45.298Z,21.10
2018-03-25T05:22:12.762Z,17.62
2018-03-25T05:24:40.860Z,17.10
2018-03-25T05:27:09.090Z,21.02
2018-03-25T05:29:37.414Z,23.50
2018-03-25T05:32:05.646Z,20.70
2018-03-25T05:34:33.106Z,19.55
2018-03-25T05:37:00.674Z,20.95
2018-03-25T05:39:28.625Z,19.00
2018-03-25T05:41:56.634Z,22.77
2018-03-25T05:44:24.107Z,17.90
2018-03-25T05:46:53.111Z,17.23
2018-03-25T05:49:21.334Z,18.58
2018-03-25T05:51:48.915Z,16.20
2018-03-25T05:54:16.690Z,18.10
2018-03-25T05:56:44.907Z,15.45
2018-03-25T05:59:12.411Z,14.70
2018-03-25T06:01:40.174Z,14.82
2018-03-25T06:04:08.250Z,15.68
2018-03-25T06:06:35.706Z,14.68
2018-03-25T06:09:03.158Z,14.10
2018-03-25T06:11:30.622Z,14.50
2018-03-25T06:13:58.931Z,15.25
2018-03-25T06:16:27.146Z,13.18
2018-03-25T06:18:54.630Z,13.77
2018-03-25T06:21:22.903Z,12.13
2018-03-25T06:23:51.126Z,12.27
2018-03-25T06:26:18.655Z,11.20
2018-03-25T06:28:46.626Z,13.82
2018-03-25T06:31:14.198Z,12.70
2018-03-25T06:33:42.574Z,12.63
2018-03-25T06:36:10.930Z,11.15
2018-03-25T06:38:39.478Z,12.98
2018-03-25T06:41:07.278Z,11.93
2018-03-25T06:43:35.161Z,10.00
2018-03-25T06:46:02.706Z,14.38
2018-03-25T06:48:30.171Z,12.95
2018-03-25T06:50:59.111Z,12.73
2018-03-25T06:53:27.293Z,9.77
2018-03-25T06:55:55.468Z,12.30
2018-03-25T06:58:22.931Z,11.65
2018-03-25T07:00:50.459Z,12.60
2018-03-25T07:03:18.679Z,10.93
2018-03-25T07:05:46.448Z,10.20
2018-03-25T07:08:14.752Z,10.80
2018-03-25T07:10:42.800Z,9.17
2018-03-25T07:13:10.462Z,11.00
2018-03-25T07:15:37.926Z,11.40
2018-03-25T07:18:05.378Z,7.77
2018-03-25T07:20:32.842Z,10.33
2018-03-25T07:23:00.921Z,11.80
2018-03-25T07:25:28.449Z,9.07
2018-03-25T07:27:56.354Z,7.00
2018-03-25T07:30:24.588Z,9.37
2018-03-25T07:32:52.090Z,8.83
2018-03-25T07:35:19.796Z,8.47
2018-03-25T07:37:48.254Z,10.57
2018-03-25T07:40:16.618Z,8.63
2018-03-25T07:42:45.035Z,10.93
2018-03-25T07:45:13.066Z,10.30
2018-03-25T07:47:41.032Z,7.37
2018-03-25T07:50:08.747Z,8.53
2018-03-25T07:52:36.162Z,7.20
2018-03-25T07:55:03.610Z,6.73
2018-03-25T07:57:31.060Z,7.20
2018-03-25T07:59:58.997Z,12.37
2018-03-25T08:02:26.950Z,10.90
2018-03-25T08:04:54.945Z,13.52
2018-03-25T08:07:23.015Z,12.83
2018-03-25T08:09:50.890Z,12.30
2018-03-25T08:12:18.758Z,11.60
2018-03-25T08:14:46.248Z,9.37
2018-03-25T08:17:13.704Z,9.53
2018-03-25T08:19:41.171Z,9.53
2018-03-25T08:22:09.114Z,9.00
2018-03-25T08:24:36.928Z,7.93
2018-03-25T08:27:05.178Z,9.17
2018-03-25T08:29:33.466Z,11.03
2018-03-25T08:32:01.434Z,9.27
2018-03-25T08:34:29.192Z,9.03
2018-03-25T08:36:56.878Z,9.90
2018-03-25T08:39:24.515Z,8.63
2018-03-25T08:41:51.958Z,9.20
2018-03-25T08:44:19.554Z,8.87
2018-03-25T08:46:47.938Z,7.83
2018-03-25T08:49:16.303Z,9.17
2018-03-25T08:51:43.799Z,10.30
2018-03-25T08:54:11.753Z,10.17
2018-03-25T08:56:40.058Z,8.53
2018-03-25T08:59:08.622Z,10.40
2018-03-25T09:01:36.487Z,10.67
2018-03-25T09:04:04.726Z,12.43
2018-03-25T09:06:32.179Z,10.20
2018-03-25T09:08:59.908Z,12.80
2018-03-25T09:11:28.092Z,13.87
2018-03-25T09:13:55.542Z,12.77
2018-03-25T09:16:23.342Z,12.07
2018-03-25T09:18:50.809Z,10.93
2018-03-25T09:21:19.305Z,13.33
2018-03-25T09:23:46.750Z,15.67
2018-03-25T09:26:15.126Z,15.40
2018-03-25T09:28:42.695Z,15.90
2018-03-25T09:31:10.147Z,12.63
2018-03-25T09:33:37.614Z,13.37
2018-03-25T09:36:05.063Z,12.90
2018-03-25T09:38:32.582Z,15.27
2018-03-25T09:41:00.032Z,13.90
2018-03-25T09:43:27.492Z,14.00
2018-03-25T09:45:54.953Z,13.27
2018-03-25T09:48:22.513Z,15.30
2018-03-25T09:50:50.422Z,14.20
2018-03-25T09:53:19.544Z,14.87
2018-03-25T09:55:48.298Z,13.17
2018-03-25T09:58:15.767Z,14.50
2018-03-25T10:00:43.227Z,11.77
2018-03-25T10:03:16.378Z,11.23
2018-03-25T10:05:44.445Z,12.60
2018-03-25T10:08:13.606Z,12.23
2018-03-25T10:10:41.863Z,11.63
2018-03-25T10:13:09.707Z,12.10
2018-03-25T10:15:38.474Z,11.83
2018-03-25T10:18:06.630Z,12.60
2018-03-25T10:20:34.638Z,11.90
2018-03-25T10:23:02.618Z,13.23
2018-03-25T10:25:30.922Z,13.60
2018-03-25T10:27:58.837Z,12.73
2018-03-25T10:30:27.336Z,11.17
2018-03-25T10:32:56.059Z,11.53
2018-03-25T10:35:24.285Z,15.93
2018-03-25T10:37:52.665Z,16.00
2018-03-25T10:40:20.171Z,16.50
2018-03-25T10:42:47.633Z,15.93
2018-03-25T10:45:15.085Z,13.80
2018-03-25T10:47:42.634Z,14.40
2018-03-25T10:50:10.090Z,13.63
2018-03-25T10:52:37.918Z,15.30
2018-03-25T10:55:05.462Z,14.93
2018-03-25T10:57:32.916Z,14.90
2018-03-25T11:00:01.726Z,15.80
2018-03-25T11:02:29.223Z,16.13
2018-03-25T11:04:56.686Z,14.43
2018-03-25T11:07:24.946Z,15.03
2018-03-25T11:09:52.830Z,16.10
2018-03-25T11:12:20.614Z,15.70
2018-03-25T11:14:49.358Z,14.97
2018-03-25T11:17:16.817Z,14.07
2018-03-25T11:19:44.273Z,13.00
2018-03-25T11:22:11.734Z,13.40
2018-03-25T11:24:39.230Z,13.43
2018-03-25T11:27:07.292Z,12.53
2018-03-25T11:29:34.757Z,15.00
2018-03-25T11:32:02.304Z,13.07
2018-03-25T11:34:30.453Z,14.27
2018-03-25T11:36:57.906Z,12.93
2018-03-25T11:39:26.438Z,12.40
2018-03-25T11:41:55.377Z,14.80
2018-03-25T11:44:23.594Z,14.13
2018-03-25T11:46:51.054Z,12.47
2018-03-25T11:49:18.510Z,12.43
2018-03-25T11:51:46.023Z,13.80
2018-03-25T11:54:14.452Z,14.37
2018-03-25T11:56:42.622Z,13.47
2018-03-25T11:59:10.943Z,13.53
2018-03-25T12:01:38.410Z,13.50
2018-03-25T12:04:06.035Z,12.80
2018-03-25T12:06:33.481Z,11.63
2018-03-25T12:09:01.916Z,11.77
2018-03-25T12:11:29.674Z,13.30
2018-03-25T12:13:57.818Z,16.17
2018-03-25T12:16:26.119Z,12.60
2018-03-25T12:18:53.536Z,12.53
2018-03-25T12:21:23.273Z,12.70
2018-03-25T12:23:52.123Z,12.23
2018-03-25T12:26:21.083Z,13.13
2018-03-25T12:28:48.523Z,13.10
2018-03-25T12:31:15.986Z,16.80
2018-03-25T12:33:43.788Z,12.17
2018-03-25T12:36:11.675Z,13.30
2018-03-25T12:38:39.963Z,10.67
2018-03-25T12:41:07.410Z,13.25
2018-03-25T12:43:34.898Z,11.30
2018-03-25T12:46:03.182Z,14.73
2018-03-25T12:48:30.642Z,13.87
2018-03-25T12:50:58.626Z,11.53
2018-03-25T12:53:27.615Z,11.23
2018-03-25T12:55:55.858Z,13.13
2018-03-25T12:58:23.822Z,12.23
2018-03-25T13:00:51.332Z,14.00
2018-03-25T13:03:19.458Z,11.53
2018-03-25T13:05:46.913Z,13.20
2018-03-25T13:08:15.146Z,15.33
2018-03-25T13:10:42.611Z,16.60
2018-03-25T13:13:11.553Z,13.07
2018-03-25T13:15:39.802Z,16.07
2018-03-25T13:18:07.987Z,11.47
2018-03-25T13:20:36.215Z,11.93
2018-03-25T13:23:03.719Z,14.60
2018-03-25T13:25:31.182Z,13.43
2018-03-25T13:27:58.634Z,12.30
2018-03-25T13:30:26.114Z,14.27
2018-03-25T13:32:55.242Z,13.17
2018-03-25T13:35:22.712Z,14.03
2018-03-25T13:37:50.215Z,13.10
2018-03-25T13:40:17.662Z,10.20
2018-03-25T13:42:45.667Z,13.20
2018-03-25T13:45:13.909Z,13.10
2018-03-25T13:47:41.366Z,13.57
2018-03-25T13:50:08.821Z,15.33
2018-03-25T13:52:36.389Z,12.17
2018-03-25T13:55:03.843Z,22.80
2018-03-25T13:57:31.324Z,11.70
2018-03-25T13:59:58.783Z,12.40
2018-03-25T14:02:27.005Z,11.87
2018-03-25T14:04:54.483Z,12.37
2018-03-25T14:07:21.938Z,13.60
2018-03-25T14:09:49.810Z,15.83
2018-03-25T14:12:17.397Z,12.20
2018-03-25T14:14:44.850Z,11.33
2018-03-25T14:17:12.330Z,14.17
2018-03-25T14:19:40.558Z,14.47
2018-03-25T14:22:08.135Z,13.17
2018-03-25T14:24:35.922Z,11.23
2018-03-25T14:27:04.157Z,11.67
2018-03-25T14:29:31.738Z,10.37
2018-03-25T14:32:00.113Z,11.97
2018-03-25T14:34:27.573Z,10.93
2018-03-25T14:36:55.022Z,12.07
2018-03-25T14:39:22.490Z,13.40
2018-03-25T14:41:49.947Z,11.33
2018-03-25T14:44:20.373Z,12.03
2018-03-25T14:46:48.650Z,12.17
2018-03-25T14:49:16.214Z,12.63
2018-03-25T14:51:43.693Z,10.73
2018-03-25T14:54:11.138Z,8.97
2018-03-25T14:56:38.602Z,10.00
2018-03-25T14:59:07.604Z,14.13
2018-03-25T15:01:35.141Z,13.40
2018-03-25T15:04:02.726Z,11.43
2018-03-25T15:06:31.991Z,10.90
2018-03-25T15:08:59.455Z,12.83
2018-03-25T15:11:26.924Z,16.03
2018-03-25T15:13:54.386Z,12.30
2018-03-25T15:16:21.942Z,12.67
2018-03-25T15:18:49.707Z,10.70
2018-03-25T15:21:17.656Z,11.30
2018-03-25T15:23:45.750Z,12.37
2018-03-25T15:26:14.547Z,12.07
2018-03-25T15:28:42.718Z,11.73
2018-03-25T15:31:11.118Z,12.47
2018-03-25T15:33:39.572Z,11.70
2018-03-25T15:36:07.026Z,12.10
2018-03-25T15:38:34.803Z,15.90
2018-03-25T15:41:03.066Z,11.57
2018-03-25T15:43:30.564Z,13.77
2018-03-25T15:45:58.798Z,12.77
2018-03-25T15:48:26.817Z,14.20
2018-03-25T15:50:55.812Z,13.77
2018-03-25T15:53:23.280Z,13.37
2018-03-25T15:55:51.199Z,17.13
2018-03-25T15:58:19.274Z,13.93
2018-03-25T16:00:47.245Z,14.40
2018-03-25T16:03:14.719Z,14.43
2018-03-25T16:05:42.938Z,13.10
2018-03-25T16:08:10.638Z,13.87
2018-03-25T16:10:38.099Z,12.20
2018-03-25T16:13:06.166Z,13.40
2018-03-25T16:15:34.346Z,12.47
2018-03-25T16:18:01.807Z,14.87
2018-03-25T16:20:29.270Z,14.20
2018-03-25T16:22:58.047Z,16.10
2018-03-25T16:25:25.623Z,16.87
2018-03-25T16:27:53.770Z,74.00
2018-03-25T16:30:21.346Z,26.73
2018-03-25T16:32:48.808Z,15.13
2018-03-25T16:35:17.078Z,24.90
2018-03-25T16:37:45.354Z,17.20
2018-03-25T16:40:12.807Z,16.10
2018-03-25T16:42:40.286Z,25.53
2018-03-25T16:45:08.244Z,19.47
2018-03-25T16:47:35.822Z,18.03
2018-03-25T16:50:04.371Z,16.07
2018-03-25T16:52:31.848Z,18.97
2018-03-25T16:55:00.282Z,15.40
2018-03-25T16:57:28.628Z,18.00
2018-03-25T16:59:57.806Z,14.13
2018-03-25T17:02:29.063Z,16.63
2018-03-25T17:04:56.525Z,16.97
2018-03-25T17:07:24.298Z,19.20
2018-03-25T17:09:52.543Z,17.17
2018-03-25T17:12:20.505Z,17.47
2018-03-25T17:14:47.962Z,18.43
2018-03-25T17:17:16.066Z,17.07
2018-03-25T17:19:43.519Z,17.17
2018-03-25T17:22:11.978Z,21.73
2018-03-25T17:24:39.803Z,18.40
2018-03-25T17:27:07.931Z,17.67
2018-03-25T17:29:35.377Z,17.20
2018-03-25T17:32:02.839Z,20.87
2018-03-25T17:34:30.669Z,18.93
2018-03-25T17:36:58.507Z,21.60
2018-03-25T17:39:26.734Z,19.00
2018-03-25T17:41:54.209Z,20.37
2018-03-25T17:44:21.730Z,21.17
2018-03-25T17:46:50.207Z,25.50
2018-03-25T17:49:17.670Z,22.33
2018-03-25T17:51:46.026Z,24.50
2018-03-25T17:54:15.093Z,25.83
2018-03-25T17:56:43.366Z,20.73
2018-03-25T17:59:11.230Z,25.43
2018-03-25T18:01:39.511Z,21.83
2018-03-25T18:04:06.970Z,24.73
2018-03-25T18:06:34.431Z,22.37
2018-03-25T18:09:01.927Z,22.97
2018-03-25T18:11:29.433Z,25.27
2018-03-25T18:13:57.642Z,23.13
2018-03-25T18:16:25.894Z,23.30
2018-03-25T18:18:53.350Z,25.40
2018-03-25T18:21:20.806Z,24.60
2018-03-25T18:23:48.278Z,24.60
2018-03-25T18:26:16.503Z,26.80
2018-03-25T18:28:44.003Z,23.87
2018-03-25T18:31:11.462Z,23.63
2018-03-25T18:33:39.435Z,26.20
2018-03-25T18:36:06.906Z,25.27
2018-03-25T18:38:35.403Z,27.47
2018-03-25T18:41:03.642Z,26.30
2018-03-25T18:43:31.312Z,24.93
2018-03-25T18:45:58.783Z,26.67
2018-03-25T18:48:26.234Z,24.27
2018-03-25T18:50:53.711Z,26.33
2018-03-25T18:53:22.634Z,31.27
2018-03-25T18:55:50.664Z,25.50
2018-03-25T18:58:18.131Z,28.67
2018-03-25T19:00:46.839Z,25.20
2018-03-25T19:03:14.352Z,30.57
2018-03-25T19:05:41.810Z,24.50
2018-03-25T19:08:10.363Z,25.47
2018-03-25T19:10:37.810Z,20.40
2018-03-25T19:13:05.274Z,19.23
2018-03-25T19:15:33.910Z,19.80
2018-03-25T19:18:02.286Z,17.27
2018-03-25T19:20:29.754Z,19.07
2018-03-25T19:22:57.980Z,18.53
2018-03-25T19:25:25.447Z,18.50
2018-03-25T19:27:55.242Z,20.33
2018-03-25T19:30:22.712Z,19.37
2018-03-25T19:32:50.575Z,24.10
2018-03-25T19:35:18.741Z,19.13
2018-03-25T19:37:46.242Z,18.70
2018-03-25T19:40:14.317Z,18.87
2018-03-25T19:42:42.239Z,18.20
2018-03-25T19:45:11.370Z,17.17
2018-03-25T19:47:38.838Z,16.60
2018-03-25T19:50:07.380Z,17.47
2018-03-25T19:52:36.784Z,15.50
2018-03-25T19:55:04.239Z,18.07
2018-03-25T19:57:31.691Z,19.20
2018-03-25T20:00:00.238Z,13.93
2018-03-25T20:02:28.468Z,17.10
2018-03-25T20:04:55.970Z,15.40
2018-03-25T20:07:23.428Z,16.07
2018-03-25T20:09:51.369Z,13.27
2018-03-25T20:12:18.835Z,13.97
2018-03-25T20:14:46.288Z,13.67
2018-03-25T20:17:14.005Z,15.43
2018-03-25T20:19:41.473Z,16.33
2018-03-25T20:22:09.390Z,27.87
2018-03-25T20:24:37.062Z,33.90
2018-03-25T20:27:04.572Z,34.67
2018-03-25T20:29:32.073Z,17.20
2018-03-25T20:31:59.530Z,18.70
2018-03-25T20:34:27.097Z,18.10
2018-03-25T20:36:55.316Z,19.20
2018-03-25T20:39:23.061Z,16.50
2018-03-25T20:41:51.922Z,12.73
2018-03-25T20:44:20.822Z,13.83
2018-03-25T20:46:49.054Z,11.80
2018-03-25T20:49:16.508Z,13.03
2018-03-25T20:51:43.990Z,15.73
2018-03-25T20:54:12.195Z,12.67
2018-03-25T20:56:40.734Z,10.52
2018-03-25T20:59:08.190Z,11.87
2018-03-25T21:01:36.342Z,11.93
2018-03-25T21:04:03.882Z,13.65
2018-03-25T21:06:32.751Z,10.63
2018-03-25T21:09:00.971Z,12.43
2018-03-25T21:11:29.302Z,13.50
2018-03-25T21:13:58.047Z,13.88
2018-03-25T21:16:25.619Z,14.23
2018-03-25T21:18:53.069Z,11.95
2018-03-25T21:21:20.538Z,15.07
2018-03-25T21:23:48.014Z,14.15
2018-03-25T21:26:15.688Z,12.82
2018-03-25T21:28:43.154Z,11.93
2018-03-25T21:31:11.703Z,14.98
2018-03-25T21:33:39.195Z,17.40
2018-03-25T21:36:07.422Z,14.98
2018-03-25T21:38:35.782Z,16.02
2018-03-25T21:41:03.918Z,15.68
2018-03-25T21:43:33.098Z,16.80
2018-03-25T21:46:00.679Z,18.92
2018-03-25T21:48:28.894Z,16.12
2018-03-25T21:50:57.284Z,15.23
2018-03-25T21:53:25.703Z,14.25
2018-03-25T21:55:53.618Z,14.80
2018-03-25T21:58:21.500Z,15.95
2018-03-25T22:00:49.575Z,12.95
2018-03-25T22:03:17.083Z,15.10
2018-03-25T22:05:45.713Z,13.70
2018-03-25T22:08:13.231Z,18.17
2018-03-25T22:10:41.480Z,17.83
2018-03-25T22:13:08.938Z,16.00
2018-03-25T22:15:36.967Z,14.43
2018-03-25T22:18:04.838Z,17.85
2018-03-25T22:20:32.305Z,17.55
2018-03-25T22:22:59.767Z,18.05
2018-03-25T22:25:27.238Z,15.57
2018-03-25T22:27:54.702Z,15.32
2018-03-25T22:30:22.165Z,19.42
2018-03-25T22:32:50.743Z,19.60
2018-03-25T22:35:18.214Z,21.48
2018-03-25T22:37:45.692Z,15.38
2018-03-25T22:40:14.948Z,15.10
2018-03-25T22:42:43.067Z,15.05
2018-03-25T22:45:12.351Z,14.52
2018-03-25T22:47:41.008Z,15.68
2018-03-25T22:50:08.467Z,14.20
2018-03-25T22:52:35.922Z,15.23
2018-03-25T22:55:03.387Z,15.63
2018-03-25T22:57:30.862Z,14.43
2018-03-25T22:59:58.338Z,13.40
2018-03-25T23:02:26.561Z,14.87
2018-03-25T23:04:55.254Z,18.60
2018-03-25T23:07:23.311Z,14.20
2018-03-25T23:09:50.771Z,13.57
2018-03-25T23:12:18.243Z,14.45
2018-03-25T23:14:45.914Z,14.00
2018-03-25T23:17:13.382Z,13.52
2018-03-25T23:19:40.838Z,14.25
2018-03-25T23:22:08.326Z,12.82
2018-03-25T23:24:35.850Z,13.00
2018-03-25T23:27:04.126Z,12.75
2018-03-25T23:29:31.596Z,14.07
2018-03-25T23:32:00.064Z,15.73
2018-03-25T23:34:28.074Z,17.33
2018-03-25T23:36:55.542Z,16.45
2018-03-25T23:39:24.457Z,15.15
2018-03-25T23:41:52.414Z,18.27
2018-03-25T23:44:20.644Z,16.95
2018-03-25T23:46:48.133Z,15.45
2018-03-25T23:49:17.170Z,16.08
2018-03-25T23:51:44.691Z,19.55
2018-03-25T23:54:13.526Z,18.37
2018-03-25T23:56:40.993Z,16.25
2018-03-25T23:59:09.094Z,16.87
